sensor_id;sensor_type;location;lat;lon;timestamp;pressure;altitude;pressure_sealevel;temperature;humidity
13422;BME280;6782;55.904;13.396;2023-02-12T00:00:47;62769.09;;;-143.06;100.00
13422;BME280;6782;55.904;13.396;2023-02-12T00:03:34;62769.09;;;-143.06;100.00
13422;BME280;6782;55.904;13.396;2023-02-12T00:06:21;62769.09;;;-143.06;100.00
13422;BME280;6782;55.904;13.396;2023-02-12T00:09:10;62769.09;;;-143.06;100.00
13422;BME280;6782;55.904;13.396;2023-02-12T00:11:57;62769.09;;;-143.06;100.00
13422;BME280;6782;55.904;13.396;2023-02-12T00:14:45;62769.09;;;-143.06;100.00
13422;BME280;6782;55.904;13.396;2023-02-12T00:17:32;62769.09;;;-143.06;100.00
13422;BME280;6782;55.904;13.396;2023-02-12T00:20:19;62769.09;;;-143.06;100.00
13422;BME280;6782;55.904;13.396;2023-02-12T00:23:06;62769.09;;;-143.06;100.00
13422;BME280;6782;55.904;13.396;2023-02-12T00:25:56;62769.09;;;-143.06;100.00
13422;BME280;6782;55.904;13.396;2023-02-12T00:28:44;62769.09;;;-143.06;100.00
13422;BME280;6782;55.904;13.396;2023-02-12T00:31:31;62769.09;;;-143.06;100.00
13422;BME280;6782;55.904;13.396;2023-02-12T00:34:18;62769.09;;;-143.06;100.00
13422;BME280;6782;55.904;13.396;2023-02-12T00:37:05;62769.09;;;-143.06;100.00
13422;BME280;6782;55.904;13.396;2023-02-12T00:39:52;62769.09;;;-143.06;100.00
13422;BME280;6782;55.904;13.396;2023-02-12T00:42:40;62769.09;;;-143.06;100.00
13422;BME280;6782;55.904;13.396;2023-02-12T00:45:27;62769.09;;;-143.06;100.00
13422;BME280;6782;55.904;13.396;2023-02-12T00:48:15;62769.09;;;-143.06;100.00
13422;BME280;6782;55.904;13.396;2023-02-12T00:51:03;62769.09;;;-143.06;100.00
13422;BME280;6782;55.904;13.396;2023-02-12T00:53:50;62769.09;;;-143.06;100.00
13422;BME280;6782;55.904;13.396;2023-02-12T00:56:37;62769.09;;;-143.06;100.00
13422;BME280;6782;55.904;13.396;2023-02-12T00:59:26;62769.09;;;-143.06;100.00
13422;BME280;6782;55.904;13.396;2023-02-12T01:02:13;62769.09;;;-143.06;100.00
13422;BME280;6782;55.904;13.396;2023-02-12T01:05:01;62769.09;;;-143.06;100.00
13422;BME280;6782;55.904;13.396;2023-02-12T01:07:48;62769.09;;;-143.06;100.00
13422;BME280;6782;55.904;13.396;2023-02-12T01:10:36;62769.09;;;-143.06;100.00
13422;BME280;6782;55.904;13.396;2023-02-12T01:13:25;62769.09;;;-143.06;100.00
13422;BME280;6782;55.904;13.396;2023-02-12T01:16:16;62769.09;;;-143.06;100.00
13422;BME280;6782;55.904;13.396;2023-02-12T01:19:04;62769.09;;;-143.06;100.00
13422;BME280;6782;55.904;13.396;2023-02-12T01:21:51;62769.09;;;-143.06;100.00
13422;BME280;6782;55.904;13.396;2023-02-12T01:24:38;62769.09;;;-143.06;100.00
13422;BME280;6782;55.904;13.396;2023-02-12T01:27:26;62769.09;;;-143.06;100.00
13422;BME280;6782;55.904;13.396;2023-02-12T01:30:14;62769.09;;;-143.06;100.00
13422;BME280;6782;55.904;13.396;2023-02-12T01:33:04;62769.09;;;-143.06;100.00
13422;BME280;6782;55.904;13.396;2023-02-12T01:35:51;62769.09;;;-143.06;100.00
13422;BME280;6782;55.904;13.396;2023-02-12T01:38:38;62769.09;;;-143.06;100.00
13422;BME280;6782;55.904;13.396;2023-02-12T01:41:28;62769.09;;;-143.06;100.00
13422;BME280;6782;55.904;13.396;2023-02-12T01:44:17;62769.09;;;-143.06;100.00
13422;BME280;6782;55.904;13.396;2023-02-12T01:47:05;62769.09;;;-143.06;100.00
13422;BME280;6782;55.904;13.396;2023-02-12T01:49:54;62769.09;;;-143.06;100.00
13422;BME280;6782;55.904;13.396;2023-02-12T01:52:46;62769.09;;;-143.06;100.00
13422;BME280;6782;55.904;13.396;2023-02-12T01:55:34;62769.09;;;-143.06;100.00
13422;BME280;6782;55.904;13.396;2023-02-12T01:58:23;62769.09;;;-143.06;100.00
13422;BME280;6782;55.904;13.396;2023-02-12T02:01:22;62769.09;;;-143.06;100.00
13422;BME280;6782;55.904;13.396;2023-02-12T02:04:13;62769.09;;;-143.06;100.00
13422;BME280;6782;55.904;13.396;2023-02-12T02:07:04;62769.09;;;-143.06;100.00
13422;BME280;6782;55.904;13.396;2023-02-12T02:09:53;62769.09;;;-143.06;100.00
13422;BME280;6782;55.904;13.396;2023-02-12T02:12:41;62769.09;;;-143.06;100.00
13422;BME280;6782;55.904;13.396;2023-02-12T02:15:47;62769.09;;;-143.06;100.00
13422;BME280;6782;55.904;13.396;2023-02-12T02:18:42;62769.09;;;-143.06;100.00
13422;BME280;6782;55.904;13.396;2023-02-12T02:21:50;62769.09;;;-143.06;100.00
13422;BME280;6782;55.904;13.396;2023-02-12T02:24:55;62769.09;;;-143.06;100.00
13422;BME280;6782;55.904;13.396;2023-02-12T02:27:52;62769.09;;;-143.06;100.00
13422;BME280;6782;55.904;13.396;2023-02-12T02:30:51;62769.09;;;-143.06;100.00
13422;BME280;6782;55.904;13.396;2023-02-12T02:33:50;62769.09;;;-143.06;100.00
13422;BME280;6782;55.904;13.396;2023-02-12T02:36:44;62769.09;;;-143.06;100.00
13422;BME280;6782;55.904;13.396;2023-02-12T02:39:36;62769.09;;;-143.06;100.00
13422;BME280;6782;55.904;13.396;2023-02-12T02:42:29;62769.09;;;-143.06;100.00
13422;BME280;6782;55.904;13.396;2023-02-12T02:45:23;62769.09;;;-143.06;100.00
13422;BME280;6782;55.904;13.396;2023-02-12T02:48:17;62769.09;;;-143.06;100.00
13422;BME280;6782;55.904;13.396;2023-02-12T02:51:09;62769.09;;;-143.06;100.00
13422;BME280;6782;55.904;13.396;2023-02-12T02:54:04;62769.09;;;-143.06;100.00
13422;BME280;6782;55.904;13.396;2023-02-12T02:56:57;62769.09;;;-143.06;100.00
13422;BME280;6782;55.904;13.396;2023-02-12T02:59:51;62769.09;;;-143.06;100.00
13422;BME280;6782;55.904;13.396;2023-02-12T03:02:43;62769.09;;;-143.06;100.00
13422;BME280;6782;55.904;13.396;2023-02-12T03:05:36;62769.09;;;-143.06;100.00
13422;BME280;6782;55.904;13.396;2023-02-12T03:08:28;62769.09;;;-143.06;100.00
13422;BME280;6782;55.904;13.396;2023-02-12T03:11:23;62769.09;;;-143.06;100.00
13422;BME280;6782;55.904;13.396;2023-02-12T03:14:16;62769.09;;;-143.06;100.00
13422;BME280;6782;55.904;13.396;2023-02-12T03:17:08;62769.09;;;-143.06;100.00
13422;BME280;6782;55.904;13.396;2023-02-12T03:19:59;62769.09;;;-143.06;100.00
13422;BME280;6782;55.904;13.396;2023-02-12T03:22:55;62769.09;;;-143.06;100.00
13422;BME280;6782;55.904;13.396;2023-02-12T03:25:48;62769.09;;;-143.06;100.00
13422;BME280;6782;55.904;13.396;2023-02-12T03:28:39;62769.09;;;-143.06;100.00
13422;BME280;6782;55.904;13.396;2023-02-12T03:31:32;62769.09;;;-143.06;100.00
13422;BME280;6782;55.904;13.396;2023-02-12T03:34:27;62769.09;;;-143.06;100.00
13422;BME280;6782;55.904;13.396;2023-02-12T03:37:20;62769.09;;;-143.06;100.00
13422;BME280;6782;55.904;13.396;2023-02-12T03:40:15;62769.09;;;-143.06;100.00
13422;BME280;6782;55.904;13.396;2023-02-12T03:43:06;62769.09;;;-143.06;100.00
13422;BME280;6782;55.904;13.396;2023-02-12T03:45:59;62769.09;;;-143.06;100.00
13422;BME280;6782;55.904;13.396;2023-02-12T03:48:57;62769.09;;;-143.06;100.00
13422;BME280;6782;55.904;13.396;2023-02-12T03:51:45;62769.09;;;-143.06;100.00
13422;BME280;6782;55.904;13.396;2023-02-12T03:54:33;62769.09;;;-143.06;100.00
13422;BME280;6782;55.904;13.396;2023-02-12T03:57:25;62769.09;;;-143.06;100.00
13422;BME280;6782;55.904;13.396;2023-02-12T04:00:18;62769.09;;;-143.06;100.00
13422;BME280;6782;55.904;13.396;2023-02-12T04:03:06;62769.09;;;-143.06;100.00
13422;BME280;6782;55.904;13.396;2023-02-12T04:05:53;62769.09;;;-143.06;100.00
13422;BME280;6782;55.904;13.396;2023-02-12T04:08:40;62769.09;;;-143.06;100.00
13422;BME280;6782;55.904;13.396;2023-02-12T04:11:32;62769.09;;;-143.06;100.00
13422;BME280;6782;55.904;13.396;2023-02-12T04:14:26;62769.09;;;-143.06;100.00
13422;BME280;6782;55.904;13.396;2023-02-12T04:17:22;62769.09;;;-143.06;100.00
13422;BME280;6782;55.904;13.396;2023-02-12T04:20:34;62769.09;;;-143.06;100.00
13422;BME280;6782;55.904;13.396;2023-02-12T04:23:39;62769.09;;;-143.06;100.00
13422;BME280;6782;55.904;13.396;2023-02-12T04:26:36;62769.09;;;-143.06;100.00
13422;BME280;6782;55.904;13.396;2023-02-12T04:29:33;62769.09;;;-143.06;100.00
13422;BME280;6782;55.904;13.396;2023-02-12T04:32:29;62769.09;;;-143.06;100.00
13422;BME280;6782;55.904;13.396;2023-02-12T04:35:21;62769.09;;;-143.06;100.00
13422;BME280;6782;55.904;13.396;2023-02-12T04:38:15;62769.09;;;-143.06;100.00
13422;BME280;6782;55.904;13.396;2023-02-12T04:41:04;62769.09;;;-143.06;100.00
13422;BME280;6782;55.904;13.396;2023-02-12T04:43:52;62769.09;;;-143.06;100.00
13422;BME280;6782;55.904;13.396;2023-02-12T04:46:41;62769.09;;;-143.06;100.00
13422;BME280;6782;55.904;13.396;2023-02-12T04:49:28;62769.09;;;-143.06;100.00
13422;BME280;6782;55.904;13.396;2023-02-12T04:52:15;62769.09;;;-143.06;100.00
13422;BME280;6782;55.904;13.396;2023-02-12T04:55:02;62769.09;;;-143.06;100.00
13422;BME280;6782;55.904;13.396;2023-02-12T04:57:49;62769.09;;;-143.06;100.00
13422;BME280;6782;55.904;13.396;2023-02-12T05:00:37;62769.09;;;-143.06;100.00
13422;BME280;6782;55.904;13.396;2023-02-12T05:03:25;62769.09;;;-143.06;100.00
13422;BME280;6782;55.904;13.396;2023-02-12T05:06:12;62769.09;;;-143.06;100.00
13422;BME280;6782;55.904;13.396;2023-02-12T05:08:59;62769.09;;;-143.06;100.00
13422;BME280;6782;55.904;13.396;2023-02-12T05:11:47;62769.09;;;-143.06;100.00
13422;BME280;6782;55.904;13.396;2023-02-12T05:14:34;62769.09;;;-143.06;100.00
13422;BME280;6782;55.904;13.396;2023-02-12T05:17:21;62769.09;;;-143.06;100.00
13422;BME280;6782;55.904;13.396;2023-02-12T05:20:11;62769.09;;;-143.06;100.00
13422;BME280;6782;55.904;13.396;2023-02-12T05:22:59;62769.09;;;-143.06;100.00
13422;BME280;6782;55.904;13.396;2023-02-12T05:25:46;62769.09;;;-143.06;100.00
13422;BME280;6782;55.904;13.396;2023-02-12T05:28:33;62769.09;;;-143.06;100.00
13422;BME280;6782;55.904;13.396;2023-02-12T05:31:20;62769.09;;;-143.06;100.00
13422;BME280;6782;55.904;13.396;2023-02-12T05:34:09;62769.09;;;-143.06;100.00
13422;BME280;6782;55.904;13.396;2023-02-12T05:36:58;62769.09;;;-143.06;100.00
13422;BME280;6782;55.904;13.396;2023-02-12T05:39:47;62769.09;;;-143.06;100.00
13422;BME280;6782;55.904;13.396;2023-02-12T05:42:34;62769.09;;;-143.06;100.00
13422;BME280;6782;55.904;13.396;2023-02-12T05:45:22;62769.09;;;-143.06;100.00
13422;BME280;6782;55.904;13.396;2023-02-12T05:48:12;62769.09;;;-143.06;100.00
13422;BME280;6782;55.904;13.396;2023-02-12T05:51:03;62769.09;;;-143.06;100.00
13422;BME280;6782;55.904;13.396;2023-02-12T05:53:56;62769.09;;;-143.06;100.00
13422;BME280;6782;55.904;13.396;2023-02-12T05:56:46;62769.09;;;-143.06;100.00
13422;BME280;6782;55.904;13.396;2023-02-12T05:59:34;62769.09;;;-143.06;100.00
13422;BME280;6782;55.904;13.396;2023-02-12T06:02:21;62769.09;;;-143.06;100.00
13422;BME280;6782;55.904;13.396;2023-02-12T06:05:08;62769.09;;;-143.06;100.00
13422;BME280;6782;55.904;13.396;2023-02-12T06:07:56;62769.09;;;-143.06;100.00
13422;BME280;6782;55.904;13.396;2023-02-12T06:10:45;62769.09;;;-143.06;100.00
13422;BME280;6782;55.904;13.396;2023-02-12T06:13:33;62769.09;;;-143.06;100.00
13422;BME280;6782;55.904;13.396;2023-02-12T06:16:21;62769.09;;;-143.06;100.00
13422;BME280;6782;55.904;13.396;2023-02-12T06:19:09;62769.09;;;-143.06;100.00
13422;BME280;6782;55.904;13.396;2023-02-12T06:21:58;62769.09;;;-143.06;100.00
13422;BME280;6782;55.904;13.396;2023-02-12T06:24:46;62769.09;;;-143.06;100.00
13422;BME280;6782;55.904;13.396;2023-02-12T06:27:35;62769.09;;;-143.06;100.00
13422;BME280;6782;55.904;13.396;2023-02-12T06:30:22;62769.09;;;-143.06;100.00
13422;BME280;6782;55.904;13.396;2023-02-12T06:33:09;62769.09;;;-143.06;100.00
13422;BME280;6782;55.904;13.396;2023-02-12T06:35:56;62769.09;;;-143.06;100.00
13422;BME280;6782;55.904;13.396;2023-02-12T06:38:43;62769.09;;;-143.06;100.00
13422;BME280;6782;55.904;13.396;2023-02-12T06:41:31;62769.09;;;-143.06;100.00
13422;BME280;6782;55.904;13.396;2023-02-12T06:44:19;62769.09;;;-143.06;100.00
13422;BME280;6782;55.904;13.396;2023-02-12T06:47:06;62769.09;;;-143.06;100.00
13422;BME280;6782;55.904;13.396;2023-02-12T06:49:53;62769.09;;;-143.06;100.00
13422;BME280;6782;55.904;13.396;2023-02-12T06:52:41;62769.09;;;-143.06;100.00
13422;BME280;6782;55.904;13.396;2023-02-12T06:55:28;62769.09;;;-143.06;100.00
13422;BME280;6782;55.904;13.396;2023-02-12T06:58:15;62769.09;;;-143.06;100.00
13422;BME280;6782;55.904;13.396;2023-02-12T07:01:11;62769.09;;;-143.06;100.00
13422;BME280;6782;55.904;13.396;2023-02-12T07:04:01;62769.09;;;-143.06;100.00
13422;BME280;6782;55.904;13.396;2023-02-12T07:06:48;62769.09;;;-143.06;100.00
13422;BME280;6782;55.904;13.396;2023-02-12T07:09:36;62769.09;;;-143.06;100.00
13422;BME280;6782;55.904;13.396;2023-02-12T07:12:24;62769.09;;;-143.06;100.00
13422;BME280;6782;55.904;13.396;2023-02-12T07:15:12;62769.09;;;-143.06;100.00
13422;BME280;6782;55.904;13.396;2023-02-12T07:18:00;62769.09;;;-143.06;100.00
13422;BME280;6782;55.904;13.396;2023-02-12T07:20:47;62769.09;;;-143.06;100.00
13422;BME280;6782;55.904;13.396;2023-02-12T07:23:35;62769.09;;;-143.06;100.00
13422;BME280;6782;55.904;13.396;2023-02-12T07:26:22;62769.09;;;-143.06;100.00
13422;BME280;6782;55.904;13.396;2023-02-12T07:29:09;62769.09;;;-143.06;100.00
13422;BME280;6782;55.904;13.396;2023-02-12T07:31:57;62769.09;;;-143.06;100.00
13422;BME280;6782;55.904;13.396;2023-02-12T07:34:47;62769.09;;;-143.06;100.00
13422;BME280;6782;55.904;13.396;2023-02-12T07:37:34;62769.09;;;-143.06;100.00
13422;BME280;6782;55.904;13.396;2023-02-12T07:40:22;62769.09;;;-143.06;100.00
13422;BME280;6782;55.904;13.396;2023-02-12T07:43:09;62769.09;;;-143.06;100.00
13422;BME280;6782;55.904;13.396;2023-02-12T07:46:05;62769.09;;;-143.06;100.00
13422;BME280;6782;55.904;13.396;2023-02-12T07:48:52;62769.09;;;-143.06;100.00
13422;BME280;6782;55.904;13.396;2023-02-12T07:51:41;62769.09;;;-143.06;100.00
13422;BME280;6782;55.904;13.396;2023-02-12T07:54:28;62769.09;;;-143.06;100.00
13422;BME280;6782;55.904;13.396;2023-02-12T07:57:15;62769.09;;;-143.06;100.00
13422;BME280;6782;55.904;13.396;2023-02-12T08:00:03;62769.09;;;-143.06;100.00
13422;BME280;6782;55.904;13.396;2023-02-12T08:02:51;62769.09;;;-143.06;100.00
13422;BME280;6782;55.904;13.396;2023-02-12T08:05:39;62769.09;;;-143.06;100.00
13422;BME280;6782;55.904;13.396;2023-02-12T08:08:27;62769.09;;;-143.06;100.00
13422;BME280;6782;55.904;13.396;2023-02-12T08:11:15;62769.09;;;-143.06;100.00
13422;BME280;6782;55.904;13.396;2023-02-12T08:14:03;62769.09;;;-143.06;100.00
13422;BME280;6782;55.904;13.396;2023-02-12T08:16:51;62769.09;;;-143.06;100.00
13422;BME280;6782;55.904;13.396;2023-02-12T08:19:38;62769.09;;;-143.06;100.00
13422;BME280;6782;55.904;13.396;2023-02-12T08:22:26;62769.09;;;-143.06;100.00
13422;BME280;6782;55.904;13.396;2023-02-12T08:25:14;62769.09;;;-143.06;100.00
13422;BME280;6782;55.904;13.396;2023-02-12T08:28:01;62769.09;;;-143.06;100.00
13422;BME280;6782;55.904;13.396;2023-02-12T08:30:48;62769.09;;;-143.06;100.00
13422;BME280;6782;55.904;13.396;2023-02-12T08:33:36;62769.09;;;-143.06;100.00
13422;BME280;6782;55.904;13.396;2023-02-12T08:36:24;62769.09;;;-143.06;100.00
13422;BME280;6782;55.904;13.396;2023-02-12T08:39:12;62769.09;;;-143.06;100.00
13422;BME280;6782;55.904;13.396;2023-02-12T08:42:01;62769.09;;;-143.06;100.00
13422;BME280;6782;55.904;13.396;2023-02-12T08:44:48;62769.09;;;-143.06;100.00
13422;BME280;6782;55.904;13.396;2023-02-12T08:47:35;62769.09;;;-143.06;100.00
13422;BME280;6782;55.904;13.396;2023-02-12T08:50:22;62769.09;;;-143.06;100.00
13422;BME280;6782;55.904;13.396;2023-02-12T08:53:09;62769.09;;;-143.06;100.00
13422;BME280;6782;55.904;13.396;2023-02-12T08:55:56;62769.09;;;-143.06;100.00
13422;BME280;6782;55.904;13.396;2023-02-12T08:58:45;62769.09;;;-143.06;100.00
13422;BME280;6782;55.904;13.396;2023-02-12T09:01:34;62769.09;;;-143.06;100.00
13422;BME280;6782;55.904;13.396;2023-02-12T09:04:25;62769.09;;;-143.06;100.00
13422;BME280;6782;55.904;13.396;2023-02-12T09:07:12;62769.09;;;-143.06;100.00
13422;BME280;6782;55.904;13.396;2023-02-12T09:09:59;62769.09;;;-143.06;100.00
13422;BME280;6782;55.904;13.396;2023-02-12T09:12:47;62769.09;;;-143.06;100.00
13422;BME280;6782;55.904;13.396;2023-02-12T09:15:37;62769.09;;;-143.06;100.00
13422;BME280;6782;55.904;13.396;2023-02-12T09:18:24;62769.09;;;-143.06;100.00
13422;BME280;6782;55.904;13.396;2023-02-12T09:21:13;62769.09;;;-143.06;100.00
13422;BME280;6782;55.904;13.396;2023-02-12T09:24:01;62769.09;;;-143.06;100.00
13422;BME280;6782;55.904;13.396;2023-02-12T09:26:49;62769.09;;;-143.06;100.00
13422;BME280;6782;55.904;13.396;2023-02-12T09:29:36;62769.09;;;-143.06;100.00
13422;BME280;6782;55.904;13.396;2023-02-12T09:32:28;62769.09;;;-143.06;100.00
13422;BME280;6782;55.904;13.396;2023-02-12T09:35:15;62769.09;;;-143.06;100.00
13422;BME280;6782;55.904;13.396;2023-02-12T09:38:03;62769.09;;;-143.06;100.00
13422;BME280;6782;55.904;13.396;2023-02-12T09:41:06;62769.09;;;-143.06;100.00
13422;BME280;6782;55.904;13.396;2023-02-12T09:44:03;62769.09;;;-143.06;100.00
13422;BME280;6782;55.904;13.396;2023-02-12T09:46:58;62769.09;;;-143.06;100.00
13422;BME280;6782;55.904;13.396;2023-02-12T09:50:00;62769.09;;;-143.06;100.00
13422;BME280;6782;55.904;13.396;2023-02-12T09:52:50;62769.09;;;-143.06;100.00
13422;BME280;6782;55.904;13.396;2023-02-12T09:55:39;62769.09;;;-143.06;100.00
13422;BME280;6782;55.904;13.396;2023-02-12T09:58:31;62769.09;;;-143.06;100.00
13422;BME280;6782;55.904;13.396;2023-02-12T10:01:21;62769.09;;;-143.06;100.00
13422;BME280;6782;55.904;13.396;2023-02-12T10:04:08;62769.09;;;-143.06;100.00
13422;BME280;6782;55.904;13.396;2023-02-12T10:07:02;62769.09;;;-143.06;100.00
13422;BME280;6782;55.904;13.396;2023-02-12T10:10:14;62769.09;;;-143.06;100.00
13422;BME280;6782;55.904;13.396;2023-02-12T10:12:51;62769.09;;;-143.06;100.00
13422;BME280;6782;55.904;13.396;2023-02-12T10:15:31;62769.09;;;-143.06;100.00
13422;BME280;6782;55.904;13.396;2023-02-12T10:18:10;62769.09;;;-143.06;100.00
13422;BME280;6782;55.904;13.396;2023-02-12T10:21:00;62769.09;;;-143.06;100.00
13422;BME280;6782;55.904;13.396;2023-02-12T10:23:53;103333.06;;;7.67;100.00
13422;BME280;6782;55.904;13.396;2023-02-12T10:26:29;103337.09;;;7.86;100.00
13422;BME280;6782;55.904;13.396;2023-02-12T10:28:58;103335.44;;;7.88;100.00
13422;BME280;6782;55.904;13.396;2023-02-12T10:31:30;103342.44;;;7.89;100.00
13422;BME280;6782;55.904;13.396;2023-02-12T10:33:58;103348.34;;;7.80;100.00
13422;BME280;6782;55.904;13.396;2023-02-12T10:36:37;103347.44;;;7.80;100.00
13422;BME280;6782;55.904;13.396;2023-02-12T10:39:16;103354.28;;;8.04;100.00
13422;BME280;6782;55.904;13.396;2023-02-12T10:41:48;103347.19;;;8.00;100.00
13422;BME280;6782;55.904;13.396;2023-02-12T10:44:18;103338.28;;;7.95;100.00
13422;BME280;6782;55.904;13.396;2023-02-12T10:46:46;103353.75;;;8.16;100.00
13422;BME280;6782;55.904;13.396;2023-02-12T10:49:16;103343.41;;;8.22;100.00
13422;BME280;6782;55.904;13.396;2023-02-12T10:51:56;103333.78;;;8.23;100.00
13422;BME280;6782;55.904;13.396;2023-02-12T10:54:36;103333.88;;;8.26;100.00
13422;BME280;6782;55.904;13.396;2023-02-12T10:57:09;103322.69;;;8.33;100.00
13422;BME280;6782;55.904;13.396;2023-02-12T10:59:44;103325.50;;;8.39;100.00
13422;BME280;6782;55.904;13.396;2023-02-12T11:02:24;103320.47;;;8.48;100.00
13422;BME280;6782;55.904;13.396;2023-02-12T11:04:53;103325.06;;;8.55;100.00
13422;BME280;6782;55.904;13.396;2023-02-12T11:07:21;103318.13;;;8.58;100.00
13422;BME280;6782;55.904;13.396;2023-02-12T11:09:51;103308.50;;;8.59;100.00
13422;BME280;6782;55.904;13.396;2023-02-12T11:12:31;103311.16;;;8.60;100.00
13422;BME280;6782;55.904;13.396;2023-02-12T11:15:03;103309.53;;;8.65;100.00
13422;BME280;6782;55.904;13.396;2023-02-12T11:17:34;103312.97;;;8.63;100.00
13422;BME280;6782;55.904;13.396;2023-02-12T11:20:06;103320.03;;;8.64;100.00
13422;BME280;6782;55.904;13.396;2023-02-12T11:22:35;103312.91;;;8.60;100.00
13422;BME280;6782;55.904;13.396;2023-02-12T11:25:15;103291.09;;;8.64;100.00
13422;BME280;6782;55.904;13.396;2023-02-12T11:27:42;103292.72;;;8.59;100.00
13422;BME280;6782;55.904;13.396;2023-02-12T11:30:14;103285.91;;;8.67;100.00
13422;BME280;6782;55.904;13.396;2023-02-12T11:32:41;103272.84;;;8.70;100.00
13422;BME280;6782;55.904;13.396;2023-02-12T11:35:13;103272.41;;;8.89;100.00
13422;BME280;6782;55.904;13.396;2023-02-12T11:37:43;103270.69;;;8.91;100.00
13422;BME280;6782;55.904;13.396;2023-02-12T11:40:25;103264.50;;;8.88;100.00
13422;BME280;6782;55.904;13.396;2023-02-12T11:42:54;103247.97;;;8.93;100.00
13422;BME280;6782;55.904;13.396;2023-02-12T11:45:27;103253.28;;;8.96;100.00
13422;BME280;6782;55.904;13.396;2023-02-12T11:47:56;103249.16;;;9.07;100.00
13422;BME280;6782;55.904;13.396;2023-02-12T11:50:26;103239.41;;;9.03;100.00
13422;BME280;6782;55.904;13.396;2023-02-12T11:52:57;103237.63;;;9.02;100.00
13422;BME280;6782;55.904;13.396;2023-02-12T11:55:29;103233.34;;;9.07;100.00
13422;BME280;6782;55.904;13.396;2023-02-12T11:58:02;103207.75;;;8.99;100.00
13422;BME280;6782;55.904;13.396;2023-02-12T12:00:33;103218.47;;;9.09;100.00
13422;BME280;6782;55.904;13.396;2023-02-12T12:03:10;103213.16;;;9.06;100.00
13422;BME280;6782;55.904;13.396;2023-02-12T12:05:44;103200.09;;;9.11;100.00
13422;BME280;6782;55.904;13.396;2023-02-12T12:08:21;103183.41;;;9.10;100.00
13422;BME280;6782;55.904;13.396;2023-02-12T12:10:58;103181.84;;;9.18;100.00
13422;BME280;6782;55.904;13.396;2023-02-12T12:13:37;103169.59;;;9.20;100.00
13422;BME280;6782;55.904;13.396;2023-02-12T12:16:08;103155.44;;;9.15;100.00
13422;BME280;6782;55.904;13.396;2023-02-12T12:18:57;103137.16;;;9.23;100.00
13422;BME280;6782;55.904;13.396;2023-02-12T12:21:47;103126.34;;;9.09;100.00
13422;BME280;6782;55.904;13.396;2023-02-12T12:24:23;103116.84;;;9.17;100.00
13422;BME280;6782;55.904;13.396;2023-02-12T12:26:59;103100.16;;;9.15;100.00
13422;BME280;6782;55.904;13.396;2023-02-12T12:29:41;103092.59;;;9.32;100.00
13422;BME280;6782;55.904;13.396;2023-02-12T12:32:13;103089.13;;;9.34;100.00
13422;BME280;6782;55.904;13.396;2023-02-12T12:34:43;103086.84;;;9.54;100.00
13422;BME280;6782;55.904;13.396;2023-02-12T12:37:25;103075.47;;;9.57;100.00
13422;BME280;6782;55.904;13.396;2023-02-12T12:40:25;103057.88;;;9.56;100.00
13422;BME280;6782;55.904;13.396;2023-02-12T12:43:13;103034.16;;;9.53;100.00
13422;BME280;6782;55.904;13.396;2023-02-12T12:46:20;103019.56;;;9.73;100.00
13422;BME280;6782;55.904;13.396;2023-02-12T12:49:16;103003.81;;;9.77;100.00
13422;BME280;6782;55.904;13.396;2023-02-12T12:52:09;102993.44;;;9.88;100.00
13422;BME280;6782;55.904;13.396;2023-02-12T12:54:58;102983.75;;;9.85;100.00
13422;BME280;6782;55.904;13.396;2023-02-12T12:57:38;102955.75;;;9.93;100.00
13422;BME280;6782;55.904;13.396;2023-02-12T13:00:36;102924.91;;;9.88;100.00
13422;BME280;6782;55.904;13.396;2023-02-12T13:03:38;102906.56;;;9.95;100.00
13422;BME280;6782;55.904;13.396;2023-02-12T13:06:39;102881.06;;;9.93;100.00
13422;BME280;6782;55.904;13.396;2023-02-12T13:09:39;102847.88;;;10.10;100.00
13422;BME280;6782;55.904;13.396;2023-02-12T13:12:42;102846.53;;;10.45;100.00
13422;BME280;6782;55.904;13.396;2023-02-12T13:15:18;102823.66;;;10.41;100.00
13422;BME280;6782;55.904;13.396;2023-02-12T13:17:55;102782.38;;;10.45;100.00
13422;BME280;6782;55.904;13.396;2023-02-12T13:20:33;102740.28;;;10.60;100.00
13422;BME280;6782;55.904;13.396;2023-02-12T13:23:10;102708.56;;;10.52;100.00
13422;BME280;6782;55.904;13.396;2023-02-12T13:25:48;102644.34;;;10.50;100.00
13422;BME280;6782;55.904;13.396;2023-02-12T13:28:28;102606.63;;;10.60;100.00
13422;BME280;6782;55.904;13.396;2023-02-12T13:30:58;102533.59;;;10.59;100.00
13422;BME280;6782;55.904;13.396;2023-02-12T13:33:34;102486.13;;;10.65;100.00
13422;BME280;6782;55.904;13.396;2023-02-12T13:36:05;102450.91;;;10.57;100.00
13422;BME280;6782;55.904;13.396;2023-02-12T13:38:38;102377.88;;;10.50;100.00
13422;BME280;6782;55.904;13.396;2023-02-12T13:41:09;102346.28;;;10.70;100.00
13422;BME280;6782;55.904;13.396;2023-02-12T13:44:00;102312.00;;;10.90;100.00
13422;BME280;6782;55.904;13.396;2023-02-12T13:46:39;102246.91;;;10.89;100.00
13422;BME280;6782;55.904;13.396;2023-02-12T13:49:20;102196.75;;;10.78;100.00
13422;BME280;6782;55.904;13.396;2023-02-12T13:51:56;102161.56;;;10.81;100.00
13422;BME280;6782;55.904;13.396;2023-02-12T13:54:37;102125.53;;;10.71;100.00
13422;BME280;6782;55.904;13.396;2023-02-12T13:57:10;102081.53;;;10.73;100.00
13422;BME280;6782;55.904;13.396;2023-02-12T13:59:49;102058.66;;;10.78;100.00
13422;BME280;6782;55.904;13.396;2023-02-12T14:05:28;101979.50;;;10.68;100.00
13422;BME280;6782;55.904;13.396;2023-02-12T14:07:58;101951.41;;;10.55;100.00
13422;BME280;6782;55.904;13.396;2023-02-12T14:10:29;101926.84;;;10.47;100.00
13422;BME280;6782;55.904;13.396;2023-02-12T14:13:12;101917.19;;;10.43;100.00
13422;BME280;6782;55.904;13.396;2023-02-12T14:15:42;101906.66;;;10.45;100.00